createdAt,value
2019-02-09T00:00:19.616Z,95105
2019-02-09T00:01:29.128Z,95102
2019-02-09T00:02:38.686Z,95102
2019-02-09T00:03:48.175Z,95094
2019-02-09T00:04:57.697Z,95091
2019-02-09T00:06:07.218Z,95093
2019-02-09T00:07:16.778Z,95096
2019-02-09T00:08:26.295Z,95099
2019-02-09T00:09:35.864Z,95097
2019-02-09T00:10:45.379Z,95100
2019-02-09T00:11:54.909Z,95095
2019-02-09T00:13:04.486Z,95094
2019-02-09T00:14:14.017Z,95087
2019-02-09T00:15:23.517Z,95089
2019-02-09T00:16:33.038Z,95086
2019-02-09T00:17:42.556Z,95088
2019-02-09T00:18:52.102Z,95094
2019-02-09T00:20:01.643Z,95091
2019-02-09T00:21:11.181Z,95084
2019-02-09T00:22:20.707Z,95083
2019-02-09T00:23:30.199Z,95078
2019-02-09T00:24:39.735Z,95076
2019-02-09T00:25:49.250Z,95079
2019-02-09T00:26:58.767Z,95077
2019-02-09T00:28:08.320Z,95080
2019-02-09T00:29:17.849Z,95072
2019-02-09T00:30:27.356Z,95068
2019-02-09T00:31:36.874Z,95068
2019-02-09T00:32:46.393Z,95074
2019-02-09T00:33:55.938Z,95070
2019-02-09T00:35:05.461Z,95061
2019-02-09T00:36:14.995Z,95060
2019-02-09T00:37:24.576Z,95070
2019-02-09T00:38:34.101Z,95070
2019-02-09T00:39:43.634Z,95070
2019-02-09T00:40:53.162Z,95069
2019-02-09T00:42:02.687Z,95065
2019-02-09T00:43:12.207Z,95069
2019-02-09T00:44:21.722Z,95073
2019-02-09T00:45:31.259Z,95074
2019-02-09T00:46:40.786Z,95066
2019-02-09T00:47:50.299Z,95065
2019-02-09T00:48:59.846Z,95059
2019-02-09T00:50:09.382Z,95059
2019-02-09T00:51:18.915Z,95058
2019-02-09T00:52:28.492Z,95053
2019-02-09T00:53:38.027Z,95064
2019-02-09T00:54:47.552Z,95059
2019-02-09T00:55:57.066Z,95057
2019-02-09T00:57:06.595Z,95057
2019-02-09T00:58:16.127Z,95053
2019-02-09T00:59:25.654Z,95055
2019-02-09T01:00:35.209Z,95060
2019-02-09T01:01:44.733Z,95061
2019-02-09T01:02:54.266Z,95048
2019-02-09T01:04:03.776Z,95058
2019-02-09T01:05:13.326Z,95060
2019-02-09T01:06:22.839Z,95057
2019-02-09T01:07:32.358Z,95050
2019-02-09T01:08:41.875Z,95056
2019-02-09T01:09:51.528Z,95061
2019-02-09T01:11:01.056Z,95060
2019-02-09T01:12:10.561Z,95064
2019-02-09T01:13:20.095Z,95059
2019-02-09T01:14:29.649Z,95059
2019-02-09T01:15:39.177Z,95068
2019-02-09T01:16:48.714Z,95073
2019-02-09T01:17:58.216Z,95063
2019-02-09T01:19:07.744Z,95071
2019-02-09T01:20:17.265Z,95076
2019-02-09T01:21:26.784Z,95068
2019-02-09T01:22:36.331Z,95062
2019-02-09T01:23:45.898Z,95068
2019-02-09T01:24:55.453Z,95073
2019-02-09T01:26:04.977Z,95066
2019-02-09T01:27:14.495Z,95079
2019-02-09T01:28:24.009Z,95077
2019-02-09T01:29:33.545Z,95075
2019-02-09T01:30:43.084Z,95079
2019-02-09T01:31:52.605Z,95078
2019-02-09T01:33:02.154Z,95078
2019-02-09T01:34:11.748Z,95083
2019-02-09T01:35:21.356Z,95089
2019-02-09T01:36:30.893Z,95078
2019-02-09T01:37:40.439Z,95086
2019-02-09T01:38:49.970Z,95076
2019-02-09T01:39:59.548Z,95086
2019-02-09T01:41:09.077Z,95069
2019-02-09T01:42:18.606Z,95073
2019-02-09T01:43:28.133Z,95073
2019-02-09T01:44:37.664Z,95064
2019-02-09T01:45:47.203Z,95055
2019-02-09T01:46:56.769Z,95064
2019-02-09T01:48:06.250Z,95075
2019-02-09T01:49:15.778Z,95073
2019-02-09T01:50:25.327Z,95072
2019-02-09T01:51:34.853Z,95069
2019-02-09T01:52:44.408Z,95069
2019-02-09T01:53:53.916Z,95070
2019-02-09T01:55:03.435Z,95061
2019-02-09T01:56:12.968Z,95066
2019-02-09T01:57:22.498Z,95060
2019-02-09T01:58:31.993Z,95052
2019-02-09T01:59:41.518Z,95057
2019-02-09T02:00:51.102Z,95058
2019-02-09T02:02:00.636Z,95055
2019-02-09T02:03:10.142Z,95050
2019-02-09T02:04:19.666Z,95051
2019-02-09T02:05:29.223Z,95054
2019-02-09T02:06:38.736Z,95055
2019-02-09T02:07:48.254Z,95055
2019-02-09T02:08:57.767Z,95059
2019-02-09T02:10:07.378Z,95048
2019-02-09T02:11:16.903Z,95056
2019-02-09T02:12:26.415Z,95059
2019-02-09T02:13:35.948Z,95044
2019-02-09T02:14:45.487Z,95051
2019-02-09T02:15:55.002Z,95047
2019-02-09T02:17:04.520Z,95044
2019-02-09T02:18:15.057Z,95052
2019-02-09T02:19:24.561Z,95045
2019-02-09T02:20:34.104Z,95040
2019-02-09T02:21:43.613Z,95038
2019-02-09T02:22:53.116Z,95037
2019-02-09T02:24:02.642Z,95036
2019-02-09T02:25:12.145Z,95034
2019-02-09T02:26:21.739Z,95033
2019-02-09T02:27:31.276Z,95034
2019-02-09T02:28:40.784Z,95031
2019-02-09T02:29:50.285Z,95035
2019-02-09T02:30:59.837Z,95039
2019-02-09T02:32:09.354Z,95030
2019-02-09T02:33:18.895Z,95027
2019-02-09T02:34:28.456Z,95026
2019-02-09T02:35:37.999Z,95031
2019-02-09T02:36:47.524Z,95030
2019-02-09T02:37:57.057Z,95033
2019-02-09T02:39:06.574Z,95033
2019-02-09T02:40:16.094Z,95041
2019-02-09T02:41:25.696Z,95035
2019-02-09T02:42:35.231Z,95044
2019-02-09T02:43:44.734Z,95034
2019-02-09T02:44:54.250Z,95028
2019-02-09T02:46:03.788Z,95036
2019-02-09T02:47:13.306Z,95040
2019-02-09T02:48:22.823Z,95042
2019-02-09T02:49:32.355Z,95038
2019-02-09T02:50:41.939Z,95035
2019-02-09T02:51:51.472Z,95043
2019-02-09T02:53:01.006Z,95039
2019-02-09T02:54:10.531Z,95032
2019-02-09T02:55:20.068Z,95043
2019-02-09T02:56:29.622Z,95044
2019-02-09T02:57:39.158Z,95030
2019-02-09T02:58:48.679Z,95029
2019-02-09T02:59:58.183Z,95032
2019-02-09T03:01:07.719Z,95026
2019-02-09T03:02:17.246Z,95022
2019-02-09T03:03:26.771Z,95035
2019-02-09T03:04:36.283Z,95038
2019-02-09T03:05:45.833Z,95028
2019-02-09T03:06:55.345Z,95033
2019-02-09T03:08:04.883Z,95032
2019-02-09T03:09:14.403Z,95032
2019-02-09T03:10:23.959Z,95029
2019-02-09T03:11:33.491Z,95032
2019-02-09T03:12:43.017Z,95026
2019-02-09T03:13:52.544Z,95029
2019-02-09T03:15:02.076Z,95035
2019-02-09T03:16:11.621Z,95032
2019-02-09T03:17:21.136Z,95030
2019-02-09T03:18:30.648Z,95029
2019-02-09T03:19:40.153Z,95028
2019-02-09T03:20:49.688Z,95035
2019-02-09T03:21:59.206Z,95040
2019-02-09T03:23:08.729Z,95042
2019-02-09T03:24:18.287Z,95045
2019-02-09T03:25:27.790Z,95045
2019-02-09T03:26:37.343Z,95046
2019-02-09T03:27:46.964Z,95041
2019-02-09T03:28:56.499Z,95040
2019-02-09T03:30:05.987Z,95037
2019-02-09T03:31:15.557Z,95044
2019-02-09T03:32:25.087Z,95048
2019-02-09T03:33:34.625Z,95036
2019-02-09T03:34:44.161Z,95038
2019-02-09T03:35:53.654Z,95032
2019-02-09T03:37:03.167Z,95035
2019-02-09T03:38:12.670Z,95039
2019-02-09T03:39:22.182Z,95040
2019-02-09T03:40:31.700Z,95040
2019-02-09T03:41:41.241Z,95039
2019-02-09T03:42:50.745Z,95041
2019-02-09T03:44:00.282Z,95034
2019-02-09T03:45:09.797Z,95028
2019-02-09T03:46:19.326Z,95026
2019-02-09T03:47:28.837Z,95024
2019-02-09T03:48:38.350Z,95020
2019-02-09T03:49:47.862Z,95017
2019-02-09T03:50:57.371Z,95018
2019-02-09T03:52:06.911Z,95019
2019-02-09T03:53:16.431Z,95021
2019-02-09T03:54:25.973Z,95017
2019-02-09T03:55:35.510Z,95014
2019-02-09T03:56:45.048Z,95014
2019-02-09T03:57:54.572Z,95013
2019-02-09T03:59:04.101Z,95015
2019-02-09T04:00:13.614Z,95013
2019-02-09T04:01:23.144Z,95018
2019-02-09T04:02:32.682Z,95021
2019-02-09T04:03:42.236Z,95014
2019-02-09T04:04:51.765Z,95018
2019-02-09T04:06:01.289Z,95021
2019-02-09T04:07:10.815Z,95017
2019-02-09T04:08:20.329Z,95012
2019-02-09T04:09:29.822Z,95008
2019-02-09T04:10:39.359Z,95011
2019-02-09T04:11:48.908Z,95004
2019-02-09T04:12:58.443Z,95019
2019-02-09T04:14:07.971Z,95005
2019-02-09T04:15:17.481Z,95004
2019-02-09T04:16:26.986Z,95005
2019-02-09T04:17:36.526Z,95005
2019-02-09T04:18:46.074Z,94999
2019-02-09T04:19:55.611Z,94992
2019-02-09T04:21:05.134Z,94992
2019-02-09T04:22:14.662Z,94992
2019-02-09T04:23:24.198Z,94989
2019-02-09T04:24:33.737Z,94982
2019-02-09T04:25:43.257Z,94984
2019-02-09T04:26:52.772Z,94979
2019-02-09T04:28:02.274Z,94976
2019-02-09T04:29:11.795Z,94964
2019-02-09T04:30:21.337Z,94962
2019-02-09T04:31:30.866Z,94962
2019-02-09T04:32:40.418Z,94961
2019-02-09T04:33:49.925Z,94958
2019-02-09T04:34:59.446Z,94959
2019-02-09T04:36:08.949Z,94952
2019-02-09T04:37:18.464Z,94951
2019-02-09T04:38:27.990Z,94946
2019-02-09T04:39:37.514Z,94951
2019-02-09T04:40:47.051Z,94949
2019-02-09T04:41:56.599Z,94941
2019-02-09T04:43:06.110Z,94946
2019-02-09T04:44:15.631Z,94935
2019-02-09T04:45:25.161Z,94944
2019-02-09T04:46:34.696Z,94937
2019-02-09T04:47:44.237Z,94937
2019-02-09T04:48:53.751Z,94931
2019-02-09T04:50:03.292Z,94932
2019-02-09T04:51:12.797Z,94934
2019-02-09T04:52:22.327Z,94935
2019-02-09T04:53:31.835Z,94933
2019-02-09T04:54:41.357Z,94935
2019-02-09T04:55:50.894Z,94925
2019-02-09T04:57:00.411Z,94928
2019-02-09T04:58:09.936Z,94924
2019-02-09T04:59:19.464Z,94934
2019-02-09T05:00:29.003Z,94942
2019-02-09T05:01:39.526Z,94929
2019-02-09T05:02:49.100Z,94921
2019-02-09T05:03:58.637Z,94927
2019-02-09T05:05:08.154Z,94912
2019-02-09T05:06:17.696Z,94913
2019-02-09T05:07:27.234Z,94912
2019-02-09T05:08:36.749Z,94915
2019-02-09T05:09:46.274Z,94912
2019-02-09T05:10:55.793Z,94912
2019-02-09T05:12:05.306Z,94909
2019-02-09T05:13:14.846Z,94910
2019-02-09T05:14:24.355Z,94906
2019-02-09T05:15:33.873Z,94915
2019-02-09T05:16:43.406Z,94910
2019-02-09T05:17:52.939Z,94911
2019-02-09T05:19:02.454Z,94917
2019-02-09T05:20:12.168Z,94917
2019-02-09T05:21:21.716Z,94928
2019-02-09T05:22:31.294Z,94932
2019-02-09T05:23:40.834Z,94928
2019-02-09T05:24:50.366Z,94928
2019-02-09T05:25:59.937Z,94928
2019-02-09T05:27:09.449Z,94931
2019-02-09T05:28:19.009Z,94936
2019-02-09T05:29:28.547Z,94941
2019-02-09T05:30:38.062Z,94942
2019-02-09T05:31:47.577Z,94942
2019-02-09T05:32:57.141Z,94953
2019-02-09T05:34:06.678Z,94960
2019-02-09T05:35:16.210Z,94950
2019-02-09T05:36:25.703Z,94948
2019-02-09T05:37:35.219Z,94956
2019-02-09T05:38:44.779Z,94978
2019-02-09T05:39:54.316Z,94990
2019-02-09T05:41:03.856Z,94996
2019-02-09T05:42:13.396Z,95008
2019-02-09T05:43:22.911Z,95018
2019-02-09T05:44:32.496Z,95035
2019-02-09T05:45:42.018Z,95032
2019-02-09T05:46:51.513Z,95006
2019-02-09T05:48:01.045Z,95022
2019-02-09T05:49:10.565Z,95044
2019-02-09T05:50:20.116Z,95036
2019-02-09T05:51:29.621Z,95040
2019-02-09T05:52:39.130Z,95043
2019-02-09T05:53:48.703Z,95039
2019-02-09T05:54:58.233Z,95048
2019-02-09T05:56:07.743Z,95045
2019-02-09T05:57:17.288Z,95053
2019-02-09T05:58:26.833Z,95062
2019-02-09T05:59:36.353Z,95069
2019-02-09T06:00:45.890Z,95077
2019-02-09T06:01:55.458Z,95072
2019-02-09T06:03:05.014Z,95074
2019-02-09T06:04:14.543Z,95091
2019-02-09T06:05:24.106Z,95084
2019-02-09T06:06:33.632Z,95083
2019-02-09T06:07:43.143Z,95096
2019-02-09T06:08:52.692Z,95091
2019-02-09T06:10:02.198Z,95098
2019-02-09T06:11:11.722Z,95096
2019-02-09T06:12:22.258Z,95096
2019-02-09T06:13:31.787Z,95096
2019-02-09T06:14:41.302Z,95100
2019-02-09T06:15:50.803Z,95107
2019-02-09T06:17:00.323Z,95107
2019-02-09T06:18:09.875Z,95107
2019-02-09T06:19:19.396Z,95111
2019-02-09T06:20:28.931Z,95111
2019-02-09T06:21:38.484Z,95110
2019-02-09T06:22:47.996Z,95107
2019-02-09T06:23:57.527Z,95113
2019-02-09T06:25:07.052Z,95108
2019-02-09T06:26:16.567Z,95111
2019-02-09T06:27:26.098Z,95112
2019-02-09T06:28:35.628Z,95116
2019-02-09T06:29:45.138Z,95119
2019-02-09T06:30:55.643Z,95114
2019-02-09T06:32:05.157Z,95120
2019-02-09T06:33:14.702Z,95110
2019-02-09T06:34:24.251Z,95112
2019-02-09T06:35:33.765Z,95110
2019-02-09T06:36:43.300Z,95114
2019-02-09T06:37:52.821Z,95118
2019-02-09T06:39:02.349Z,95120
2019-02-09T06:40:11.868Z,95129
2019-02-09T06:41:21.406Z,95132
2019-02-09T06:42:30.914Z,95135
2019-02-09T06:43:40.466Z,95137
2019-02-09T06:44:49.991Z,95155
2019-02-09T06:45:59.541Z,95159
2019-02-09T06:47:09.092Z,95156
2019-02-09T06:48:18.648Z,95155
2019-02-09T06:49:28.171Z,95154
2019-02-09T06:50:37.696Z,95172
2019-02-09T06:51:47.231Z,95171
2019-02-09T06:52:56.757Z,95170
2019-02-09T06:54:06.314Z,95178
2019-02-09T06:55:15.840Z,95176
2019-02-09T06:56:25.373Z,95187
2019-02-09T06:57:34.891Z,95177
2019-02-09T06:58:44.413Z,95177
2019-02-09T06:59:53.933Z,95166
2019-02-09T07:01:03.450Z,95171
2019-02-09T07:02:12.984Z,95168
2019-02-09T07:03:22.563Z,95167
2019-02-09T07:04:32.103Z,95180
2019-02-09T07:05:41.694Z,95180
2019-02-09T07:06:51.199Z,95181
2019-02-09T07:08:00.718Z,95178
2019-02-09T07:09:10.261Z,95220
2019-02-09T07:10:19.981Z,95183
2019-02-09T07:11:29.741Z,95189
2019-02-09T07:12:39.518Z,95176
2019-02-09T07:13:49.115Z,95188
2019-02-09T07:14:58.629Z,95189
2019-02-09T07:16:08.159Z,95206
2019-02-09T07:17:17.694Z,95220
2019-02-09T07:18:27.237Z,95188
2019-02-09T07:19:36.822Z,95198
2019-02-09T07:20:46.373Z,95237
2019-02-09T07:21:55.919Z,95229
2019-02-09T07:23:05.433Z,95227
2019-02-09T07:24:14.950Z,95228
2019-02-09T07:25:24.467Z,95226
2019-02-09T07:26:33.981Z,95218
2019-02-09T07:27:43.526Z,95226
2019-02-09T07:28:53.072Z,95219
2019-02-09T07:30:02.611Z,95220
2019-02-09T07:31:12.164Z,95231
2019-02-09T07:32:21.710Z,95232
2019-02-09T07:33:31.219Z,95249
2019-02-09T07:34:40.762Z,95230
2019-02-09T07:35:50.278Z,95224
2019-02-09T07:36:59.818Z,95242
2019-02-09T07:38:09.334Z,95246
2019-02-09T07:39:18.883Z,95242
2019-02-09T07:40:28.413Z,95232
2019-02-09T07:41:37.917Z,95239
2019-02-09T07:42:47.438Z,95242
2019-02-09T07:43:56.963Z,95254
2019-02-09T07:45:06.485Z,95248
2019-02-09T07:46:16.183Z,95241
2019-02-09T07:47:25.700Z,95245
2019-02-09T07:48:35.223Z,95254
2019-02-09T07:49:44.746Z,95255
2019-02-09T07:50:54.254Z,95243
2019-02-09T07:52:03.768Z,95255
2019-02-09T07:53:13.320Z,95263
2019-02-09T07:54:22.872Z,95246
2019-02-09T07:55:32.415Z,95256
2019-02-09T07:56:41.928Z,95258
2019-02-09T07:57:51.455Z,95254
2019-02-09T07:59:00.996Z,95248
2019-02-09T08:00:10.526Z,95268
2019-02-09T08:01:20.062Z,95249
2019-02-09T08:02:29.616Z,95245
2019-02-09T08:03:39.158Z,95260
2019-02-09T08:04:48.708Z,95242
2019-02-09T08:05:58.214Z,95256
2019-02-09T08:07:07.723Z,95251
2019-02-09T08:08:17.231Z,95259
2019-02-09T08:09:26.777Z,95256
2019-02-09T08:10:36.294Z,95267
2019-02-09T08:11:45.839Z,95255
2019-02-09T08:12:55.409Z,95255
2019-02-09T08:14:04.936Z,95243
2019-02-09T08:15:14.461Z,95256
2019-02-09T08:16:23.993Z,95256
2019-02-09T08:17:33.534Z,95256
2019-02-09T08:18:43.144Z,95246
2019-02-09T08:19:52.683Z,95248
2019-02-09T08:21:02.187Z,95259
2019-02-09T08:22:11.732Z,95270
2019-02-09T08:23:21.240Z,95253
2019-02-09T08:24:30.794Z,95255
2019-02-09T08:25:40.315Z,95262
2019-02-09T08:26:49.813Z,95251
2019-02-09T08:27:59.329Z,95253
2019-02-09T08:29:08.880Z,95252
2019-02-09T08:30:19.235Z,95255
2019-02-09T08:31:28.014Z,95256
2019-02-09T08:32:37.559Z,95247
2019-02-09T08:33:47.093Z,95265
2019-02-09T08:34:56.646Z,95260
2019-02-09T08:36:06.238Z,95263
2019-02-09T08:37:15.878Z,95255
2019-02-09T08:38:26.133Z,95261
2019-02-09T08:39:35.688Z,95257
2019-02-09T08:40:45.243Z,95271
2019-02-09T08:41:55.778Z,95261
2019-02-09T08:43:05.304Z,95265
2019-02-09T08:44:14.877Z,95268
2019-02-09T08:45:24.383Z,95253
2019-02-09T08:46:33.911Z,95261
2019-02-09T08:47:43.440Z,95272
2019-02-09T08:48:52.971Z,95267
2019-02-09T08:50:02.572Z,95264
2019-02-09T08:51:12.094Z,95274
2019-02-09T08:52:21.607Z,95269
2019-02-09T08:53:31.129Z,95273
2019-02-09T08:54:40.730Z,95272
2019-02-09T08:55:50.248Z,95278
2019-02-09T08:56:59.768Z,95274
2019-02-09T08:58:09.375Z,95292
2019-02-09T08:59:18.959Z,95280
2019-02-09T09:00:28.521Z,95267
2019-02-09T09:01:38.052Z,95274
2019-02-09T09:02:47.588Z,95266
2019-02-09T09:03:57.136Z,95278
2019-02-09T09:05:09.665Z,95273
2019-02-09T09:06:16.200Z,95266
2019-02-09T09:07:25.750Z,95259
2019-02-09T09:08:35.285Z,95273
2019-02-09T09:09:44.853Z,95272
2019-02-09T09:10:54.399Z,95262
2019-02-09T09:12:03.928Z,95261
2019-02-09T09:13:13.467Z,95271
2019-02-09T09:14:22.987Z,95287
2019-02-09T09:15:32.563Z,95268
2019-02-09T09:16:42.091Z,95277
2019-02-09T09:17:51.671Z,95285
2019-02-09T09:19:01.203Z,95270
2019-02-09T09:20:10.788Z,95277
2019-02-09T09:21:20.312Z,95274
2019-02-09T09:22:29.831Z,95279
2019-02-09T09:23:39.342Z,95270
2019-02-09T09:24:48.908Z,95270
2019-02-09T09:25:58.404Z,95296
2019-02-09T09:27:07.918Z,95292
2019-02-09T09:28:17.445Z,95280
2019-02-09T09:29:26.982Z,95279
2019-02-09T09:30:36.616Z,95283
2019-02-09T09:31:46.142Z,95268
2019-02-09T09:32:55.671Z,95281
2019-02-09T09:34:05.198Z,95272
2019-02-09T09:35:14.774Z,95263
2019-02-09T09:36:24.293Z,95264
2019-02-09T09:37:33.810Z,95269
2019-02-09T09:38:43.363Z,95261
2019-02-09T09:39:52.937Z,95259
2019-02-09T09:41:02.445Z,95276
2019-02-09T09:42:11.990Z,95271
2019-02-09T09:43:21.508Z,95273
2019-02-09T09:44:31.145Z,95277
2019-02-09T09:45:40.734Z,95277
2019-02-09T09:46:50.262Z,95296
2019-02-09T09:47:59.812Z,95273
2019-02-09T09:49:09.350Z,95280
2019-02-09T09:50:18.901Z,95268
2019-02-09T09:51:28.404Z,95275
2019-02-09T09:52:37.925Z,95278
2019-02-09T09:53:47.473Z,95279
2019-02-09T09:54:57.053Z,95280
2019-02-09T09:56:06.570Z,95278
2019-02-09T09:57:17.068Z,95282
2019-02-09T09:58:26.582Z,95286
2019-02-09T09:59:36.135Z,95273
2019-02-09T10:00:45.683Z,95264
2019-02-09T10:01:55.213Z,95280
2019-02-09T10:03:04.742Z,95289
2019-02-09T10:04:14.258Z,95311
2019-02-09T10:05:23.834Z,95293
2019-02-09T10:06:33.375Z,95288
2019-02-09T10:07:42.915Z,95289
2019-02-09T10:08:52.442Z,95293
2019-02-09T10:10:02.001Z,95295
2019-02-09T10:11:11.512Z,95299
2019-02-09T10:12:21.031Z,95293
2019-02-09T10:13:30.543Z,95300
2019-02-09T10:14:40.055Z,95288
2019-02-09T10:15:49.654Z,95291
2019-02-09T10:16:59.230Z,95290
2019-02-09T10:18:08.739Z,95299
2019-02-09T10:19:18.237Z,95287
2019-02-09T10:20:27.798Z,95296
2019-02-09T10:21:37.329Z,95302
2019-02-09T10:22:46.940Z,95302
2019-02-09T10:23:56.487Z,95289
2019-02-09T10:25:06.069Z,95286
2019-02-09T10:26:15.574Z,95291
2019-02-09T10:27:25.090Z,95295
2019-02-09T10:28:34.641Z,95297
2019-02-09T10:29:44.140Z,95309
2019-02-09T10:30:53.701Z,95291
2019-02-09T10:32:03.211Z,95289
2019-02-09T10:33:12.730Z,95289
2019-02-09T10:34:22.359Z,95291
2019-02-09T10:35:31.906Z,95301
2019-02-09T10:36:41.553Z,95294
2019-02-09T10:37:51.063Z,95296
2019-02-09T10:39:00.589Z,95288
2019-02-09T10:40:10.154Z,95285
2019-02-09T10:41:19.656Z,95285
2019-02-09T10:42:29.167Z,95291
2019-02-09T10:43:38.685Z,95291
2019-02-09T10:44:48.188Z,95284
2019-02-09T10:45:57.754Z,95279
2019-02-09T10:47:07.267Z,95291
2019-02-09T10:48:16.805Z,95288
2019-02-09T10:49:26.322Z,95293
2019-02-09T10:50:35.871Z,95289
2019-02-09T10:51:45.422Z,95322
2019-02-09T10:52:54.959Z,95275
2019-02-09T10:54:04.520Z,95304
2019-02-09T10:55:14.097Z,95297
2019-02-09T10:56:23.616Z,95298
2019-02-09T10:57:33.137Z,95328
2019-02-09T10:58:42.657Z,95308
2019-02-09T10:59:52.162Z,95325
2019-02-09T11:01:01.730Z,95333
2019-02-09T11:02:11.231Z,95340
2019-02-09T11:03:20.760Z,95310
2019-02-09T11:04:30.274Z,95297
2019-02-09T11:05:39.839Z,95307
2019-02-09T11:06:49.371Z,95295
2019-02-09T11:07:58.898Z,95319
2019-02-09T11:09:08.432Z,95291
2019-02-09T11:10:17.953Z,95287
2019-02-09T11:11:27.519Z,95292
2019-02-09T11:12:37.036Z,95301
2019-02-09T11:13:46.558Z,95286
2019-02-09T11:14:56.099Z,95296
2019-02-09T11:16:05.664Z,95282
2019-02-09T11:17:15.192Z,95296
2019-02-09T11:18:24.717Z,95300
2019-02-09T11:19:34.234Z,95280
2019-02-09T11:20:43.814Z,95289
2019-02-09T11:21:53.357Z,95284
2019-02-09T11:23:02.893Z,95294
2019-02-09T11:24:12.480Z,95286
2019-02-09T11:25:21.992Z,95296
2019-02-09T11:26:31.603Z,95311
2019-02-09T11:27:41.141Z,95291
2019-02-09T11:28:50.675Z,95304
2019-02-09T11:30:00.213Z,95313
2019-02-09T11:31:09.771Z,95301
2019-02-09T11:32:19.283Z,95298
2019-02-09T11:33:28.821Z,95308
2019-02-09T11:34:38.359Z,95338
2019-02-09T11:35:47.902Z,95314
2019-02-09T11:36:57.435Z,95316
2019-02-09T11:38:06.974Z,95304
2019-02-09T11:39:16.503Z,95312
2019-02-09T11:40:26.033Z,95304
2019-02-09T11:41:35.606Z,95304
2019-02-09T11:42:45.142Z,95318
2019-02-09T11:43:54.667Z,95328
2019-02-09T11:45:04.185Z,95316
2019-02-09T11:46:13.751Z,95292
2019-02-09T11:47:23.283Z,95290
2019-02-09T11:48:32.828Z,95293
2019-02-09T11:49:42.348Z,95300
2019-02-09T11:50:51.905Z,95291
2019-02-09T11:52:01.454Z,95301
2019-02-09T11:53:10.965Z,95308
2019-02-09T11:54:20.520Z,95320
2019-02-09T11:55:30.047Z,95317
2019-02-09T11:56:39.633Z,95305
2019-02-09T11:57:49.154Z,95301
2019-02-09T11:58:58.692Z,95308
2019-02-09T12:00:08.229Z,95306
2019-02-09T12:01:17.781Z,95312
2019-02-09T12:02:27.304Z,95308
2019-02-09T12:03:36.842Z,95304
2019-02-09T12:04:46.366Z,95303
2019-02-09T12:05:55.936Z,95305
2019-02-09T12:07:05.453Z,95308
2019-02-09T12:08:14.974Z,95302
2019-02-09T12:09:24.492Z,95302
2019-02-09T12:10:34.003Z,95296
2019-02-09T12:11:43.574Z,95294
2019-02-09T12:12:53.087Z,95309
2019-02-09T12:14:02.610Z,95296
2019-02-09T12:15:12.131Z,95309
2019-02-09T12:16:21.694Z,95301
2019-02-09T12:17:31.222Z,95298
2019-02-09T12:18:40.745Z,95314
2019-02-09T12:19:50.277Z,95305
2019-02-09T12:20:59.868Z,95304
2019-02-09T12:22:09.378Z,95293
2019-02-09T12:23:18.990Z,95311
2019-02-09T12:24:28.554Z,95291
2019-02-09T12:25:38.058Z,95309
2019-02-09T12:26:47.650Z,95302
2019-02-09T12:27:57.187Z,95302
2019-02-09T12:29:06.699Z,95332
2019-02-09T12:30:17.189Z,95301
2019-02-09T12:31:26.732Z,95301
2019-02-09T12:32:36.237Z,95306
2019-02-09T12:33:45.777Z,95319
2019-02-09T12:34:55.292Z,95312
2019-02-09T12:36:04.867Z,95311
2019-02-09T12:37:14.380Z,95310
2019-02-09T12:38:23.900Z,95299
2019-02-09T12:39:33.452Z,95321
2019-02-09T12:40:43.006Z,95321
2019-02-09T12:41:52.579Z,95303
2019-02-09T12:43:02.092Z,95308
2019-02-09T12:44:11.625Z,95314
2019-02-09T12:45:21.163Z,95326
2019-02-09T12:46:30.720Z,95312
2019-02-09T12:47:40.249Z,95310
2019-02-09T12:48:49.779Z,95347
2019-02-09T12:49:59.324Z,95329
2019-02-09T12:51:08.906Z,95307
2019-02-09T12:52:18.433Z,95320
2019-02-09T12:53:27.985Z,95325
2019-02-09T12:54:37.520Z,95316
2019-02-09T12:55:47.056Z,95298
2019-02-09T12:56:56.622Z,95314
2019-02-09T12:58:06.136Z,95308
2019-02-09T12:59:15.706Z,95311
2019-02-09T13:00:25.232Z,95288
2019-02-09T13:01:34.798Z,95301
2019-02-09T13:02:44.346Z,95292
2019-02-09T13:03:53.846Z,95312
2019-02-09T13:05:03.364Z,95305
2019-02-09T13:06:12.957Z,95317
2019-02-09T13:07:22.480Z,95289
2019-02-09T13:08:32.007Z,95327
2019-02-09T13:09:41.523Z,95309
2019-02-09T13:10:51.056Z,95299
2019-02-09T13:12:00.686Z,95305
2019-02-09T13:13:10.207Z,95331
2019-02-09T13:14:19.740Z,95323
2019-02-09T13:15:29.260Z,95310
2019-02-09T13:16:38.816Z,95347
2019-02-09T13:17:48.341Z,95303
2019-02-09T13:18:57.846Z,95311
2019-02-09T13:20:07.363Z,95298
2019-02-09T13:21:16.966Z,95316
2019-02-09T13:22:26.478Z,95321
2019-02-09T13:23:36.011Z,95341
2019-02-09T13:24:45.559Z,95316
2019-02-09T13:25:55.069Z,95303
2019-02-09T13:27:04.628Z,95315
2019-02-09T13:28:14.153Z,95344
2019-02-09T13:29:23.718Z,95308
2019-02-09T13:30:33.247Z,95309
2019-02-09T13:31:42.769Z,95327
2019-02-09T13:32:52.291Z,95329
2019-02-09T13:34:01.970Z,95320
2019-02-09T13:35:11.509Z,95307
2019-02-09T13:36:21.097Z,95355
2019-02-09T13:37:30.617Z,95321
2019-02-09T13:38:40.175Z,95326
2019-02-09T13:39:49.700Z,95330
2019-02-09T13:40:59.234Z,95320
2019-02-09T13:42:08.749Z,95318
2019-02-09T13:43:18.284Z,95345
2019-02-09T13:44:27.869Z,95331
2019-02-09T13:45:37.381Z,95323
2019-02-09T13:46:46.922Z,95309
2019-02-09T13:47:56.468Z,95333
2019-02-09T13:49:06.024Z,95332
2019-02-09T13:50:15.543Z,95309
2019-02-09T13:51:25.083Z,95328
2019-02-09T13:52:34.602Z,95329
2019-02-09T13:53:44.213Z,95318
2019-02-09T13:54:53.719Z,95319
2019-02-09T13:56:03.242Z,95333
2019-02-09T13:57:12.756Z,95362
2019-02-09T13:58:22.268Z,95335
2019-02-09T13:59:31.831Z,95352
2019-02-09T14:00:41.362Z,95344
2019-02-09T14:01:50.878Z,95335
2019-02-09T14:03:00.433Z,95342
2019-02-09T14:04:10.019Z,95335
2019-02-09T14:05:19.545Z,95340
2019-02-09T14:06:29.068Z,95345
2019-02-09T14:07:38.580Z,95327
2019-02-09T14:08:48.113Z,95332
2019-02-09T14:09:57.687Z,95318
2019-02-09T14:11:07.202Z,95324
2019-02-09T14:12:16.739Z,95323
2019-02-09T14:13:26.268Z,95337
2019-02-09T14:14:35.823Z,95336
2019-02-09T14:15:45.401Z,95333
2019-02-09T14:16:54.920Z,95333
2019-02-09T14:18:04.445Z,95338
2019-02-09T14:19:13.993Z,95332
2019-02-09T14:20:23.518Z,95337
2019-02-09T14:21:33.078Z,95343
2019-02-09T14:22:42.615Z,95331
2019-02-09T14:23:52.151Z,95336
2019-02-09T14:25:01.712Z,95338
2019-02-09T14:26:11.238Z,95347
2019-02-09T14:27:20.753Z,95341
2019-02-09T14:28:30.280Z,95333
2019-02-09T14:29:39.849Z,95346
2019-02-09T14:30:49.384Z,95337
2019-02-09T14:31:58.919Z,95335
2019-02-09T14:33:08.452Z,95339
2019-02-09T14:34:18.060Z,95341
2019-02-09T14:35:27.622Z,95337
2019-02-09T14:36:38.132Z,95332
2019-02-09T14:37:47.666Z,95335
2019-02-09T14:38:57.195Z,95334
2019-02-09T14:40:06.767Z,95338
2019-02-09T14:41:16.350Z,95327
2019-02-09T14:42:25.874Z,95325
2019-02-09T14:43:35.386Z,95329
2019-02-09T14:44:44.963Z,95351
2019-02-09T14:45:54.505Z,95329
2019-02-09T14:47:04.058Z,95326
2019-02-09T14:48:13.595Z,95337
2019-02-09T14:49:23.101Z,95335
2019-02-09T14:50:32.651Z,95329
2019-02-09T14:51:42.930Z,95331
2019-02-09T14:52:52.489Z,95320
2019-02-09T14:54:02.015Z,95325
2019-02-09T14:55:11.561Z,95323